TS87 weather

Bridle Ridge Airport
Navasota, Texas, United States

Public forecast

Using degrees Fahrenheit for public forecast. Weather courtesy of forecast.io.

METAR (pilot weather report)

Closest report is Easterwood Field, 17.9 nm (33.2 km) NW. Retrieved 2019/07/18 00:53 UTC (58 minutes ago):

KCLL 180053Z 14012KT 10SM CLR 32/24 A2995 RMK AO2 SLP136 T03220244

TAF (pilot weather forecast)

Forecast is more than 12 hours old.

Closest forecast is Easterwood Field, 17.9 nm (33.2 km) NW. Retrieved 2019/07/17 00:24 UTC (1 day ago):

TAF KCLL 172322Z 1800/1824 16011KT P6SM FEW060 SCT250 FM180900 16005KT P6SM BKN012 FM181500 18010KT P6SM SCT025 FM181700 18012G22KT P6SM SCT040